Archival Weather

Norman Y Mineta San Jose Intl

San Jose, California (KSJC)

Report from: Wednesday, February 28, 2024 11:53 PM PST
Current time: Friday, June 14, 2024 6:11 AM PDT

Current weather – Weather history – Daily summaries
Weather forecast

Temperature11.1°C (52.0°F)
Dew point7.2°C (45.0°F)
Winds 4 kts (2.1 m/s, 4.6 mph) East-Southeast (120°)
Visibility10 mi. (16.1 km)
Clouds Sky clear
Altimeter30.04 in.Hg (1017 mB)
Relative humidity77 %
Density altitude-449 ft. (-137 m)
Sea-level pressure101.7 kPa (1017 mB, 30.04 in.Hg)
Max temp last 24 hours21.1°C (70.0°F)
Min temp last 24 hours5.6°C (42.1°F)
Remarks Automated weather observing station with precipitation discriminator
Flight conditions Visual Meteorological Conditions
Raw dataKSJC 290753Z 12004KT 10SM CLR 11/07 A3004 RMK AO2 SLP171 T01110072 402110056
An error has occurred. This application may no longer respond until reloaded. Reload 🗙